Time;durP1;ratioP1;P1;durP2;ratioP2;P2;SDS_P1;SDS_P2;PMS_P1;PMS_P2;Temp;Humidity;BMP_temperature;BMP_pressure;BME280_temperature;BME280_humidity;BME280_pressure;Samples;Min_cycle;Max_cycle;Signal;HPM_P1;HPM_P2
2023/09/04 00:02:24;;;;;;;78.90;29.70;;;16.60;99.90;;;;;;5128383;27;20213;-82
2023/09/04 00:04:51;;;;;;;83.60;30.50;;;16.60;99.90;;;;;;5142845;27;20174;-81
2023/09/04 00:07:18;;;;;;;83.07;31.17;;;16.60;99.90;;;;;;5116512;28;20580;-82
2023/09/04 00:09:44;;;;;;;79.87;31.13;;;16.70;99.90;;;;;;5100890;28;20460;-82
2023/09/04 00:15:12;;;;;;;84.97;40.53;;;16.60;99.90;;;;;;5155203;27;21020;-82
2023/09/04 00:17:38;;;;;;;83.60;39.20;;;16.50;99.90;;;;;;5149744;27;20427;-81
2023/09/04 00:20:04;;;;;;;88.73;36.63;;;16.50;99.90;;;;;;5147022;27;20200;-81
2023/09/04 00:22:30;;;;;;;84.17;42.80;;;16.40;99.90;;;;;;5132270;28;20541;-82
2023/09/04 00:24:56;;;;;;;84.47;42.60;;;16.40;99.90;;;;;;5078800;28;20479;-82
2023/09/04 00:27:23;;;;;;;90.90;58.10;;;16.50;99.90;;;;;;5036594;28;20193;-82
2023/09/04 00:29:48;;;;;;;91.40;61.70;;;16.40;99.90;;;;;;5069268;28;20206;-82
2023/09/04 00:32:14;;;;;;;88.90;55.63;;;16.30;99.90;;;;;;5085357;28;20912;-82
2023/09/04 00:34:40;;;;;;;94.10;63.37;;;16.30;99.90;;;;;;5078500;28;20219;-82
2023/09/04 00:39:43;;;;;;;91.20;58.43;;;16.30;99.90;;;;;;5150433;27;20523;-82
2023/09/04 00:42:10;;;;;;;93.37;66.40;;;16.30;99.90;;;;;;5150015;27;20415;-82
2023/09/04 00:44:36;;;;;;;90.90;61.33;;;16.30;99.90;;;;;;5154343;27;20177;-82
2023/09/04 00:47:02;;;;;;;91.67;57.27;;;16.30;99.90;;;;;;5128105;28;20420;-82
2023/09/04 00:49:29;;;;;;;92.37;57.87;;;16.30;99.90;;;;;;5075539;28;20933;-82
2023/09/04 00:51:56;;;;;;;87.20;50.13;;;16.30;99.90;;;;;;5065272;28;20909;-82
2023/09/04 00:54:23;;;;;;;83.40;41.70;;;16.40;99.90;;;;;;5051589;28;20590;-82
2023/09/04 00:56:51;;;;;;;91.73;62.93;;;16.30;99.90;;;;;;5002315;28;20444;-82
2023/09/04 00:59:18;;;;;;;89.73;58.43;;;16.30;99.90;;;;;;5008423;28;20479;-81
2023/09/04 01:04:41;;;;;;;86.37;50.73;;;16.20;99.90;;;;;;5155145;27;20517;-82
2023/09/04 01:07:07;;;;;;;91.40;57.43;;;16.20;99.90;;;;;;5149158;27;20415;-82
2023/09/04 01:09:33;;;;;;;90.40;56.30;;;16.20;99.90;;;;;;5150559;27;20221;-81
2023/09/04 01:12:01;;;;;;;91.13;55.57;;;16.10;99.90;;;;;;5132861;28;20918;-82
2023/09/04 01:14:29;;;;;;;91.43;57.37;;;16.10;99.90;;;;;;5079266;28;20587;-82
2023/09/04 01:16:56;;;;;;;90.80;62.23;;;16.10;99.90;;;;;;5011145;28;20457;-82
2023/09/04 01:19:22;;;;;;;89.43;56.23;;;16.00;99.90;;;;;;4953633;28;20427;-81
2023/09/04 01:21:48;;;;;;;88.63;54.87;;;16.00;99.90;;;;;;4963501;28;20423;-82
2023/09/04 01:24:13;;;;;;;88.80;52.10;;;16.10;99.90;;;;;;4950244;28;20530;-82
2023/09/04 01:29:30;;;;;;;85.63;46.87;;;16.00;99.90;;;;;;5154684;27;20514;-82
2023/09/04 01:32:01;;;;;;;86.73;48.93;;;16.00;99.90;;;;;;5129940;28;20428;-81
2023/09/04 01:34:32;;;;;;;88.20;55.23;;;15.90;99.90;;;;;;5140907;27;20426;-81
2023/09/04 01:36:59;;;;;;;86.83;51.87;;;15.80;99.90;;;;;;5154119;27;20418;-82
2023/09/04 01:39:26;;;;;;;88.93;53.33;;;15.70;99.90;;;;;;5110098;28;20433;-82
2023/09/04 01:41:52;;;;;;;88.40;54.23;;;15.70;99.90;;;;;;5115375;28;20890;-81
2023/09/04 01:44:18;;;;;;;87.50;54.10;;;15.60;99.90;;;;;;5112331;28;20417;-81
2023/09/04 01:46:44;;;;;;;87.97;50.13;;;15.60;99.90;;;;;;5085492;28;20190;-81
2023/09/04 01:49:10;;;;;;;88.23;53.03;;;15.60;99.90;;;;;;5055378;28;20471;-81
2023/09/04 01:53:29;;;;;;;85.50;47.80;;;15.60;99.90;;;;;;5155156;27;20505;-82
2023/09/04 01:55:54;;;;;;;86.63;44.63;;;15.60;99.90;;;;;;5149876;27;20422;-81
2023/09/04 01:58:20;;;;;;;85.77;46.70;;;15.60;99.90;;;;;;5134604;27;20223;-81
2023/09/04 02:00:47;;;;;;;92.17;59.47;;;15.60;99.90;;;;;;5120541;28;20206;-82
2023/09/04 02:03:13;;;;;;;88.30;52.37;;;15.50;99.90;;;;;;5066269;28;20724;-82
2023/09/04 02:05:39;;;;;;;86.80;49.33;;;15.50;99.90;;;;;;5039153;28;20423;-82
2023/09/04 02:08:07;;;;;;;88.87;56.07;;;15.40;99.90;;;;;;5054194;28;20453;-81
2023/09/04 02:10:36;;;;;;;88.43;53.57;;;15.40;99.90;;;;;;4947141;28;20448;-80
2023/09/04 02:13:02;;;;;;;92.37;60.97;;;15.40;99.90;;;;;;4992185;28;20463;-82
2023/09/04 02:15:29;;;;;;;93.40;64.63;;;15.30;99.90;;;;;;4993927;28;20410;-82
2023/09/04 02:18:56;;;;;;;93.87;61.97;;;15.30;99.90;;;;;;5155072;27;20499;-82
2023/09/04 02:21:21;;;;;;;90.47;60.00;;;15.20;99.90;;;;;;5130340;28;20445;-82
2023/09/04 02:23:47;;;;;;;90.27;58.60;;;15.20;99.90;;;;;;5113165;28;20428;-82
2023/09/04 02:26:13;;;;;;;89.30;55.93;;;15.10;99.90;;;;;;5131300;28;20179;-82
2023/09/04 02:28:39;;;;;;;88.87;54.57;;;15.20;99.90;;;;;;5107987;28;20263;-82
2023/09/04 02:31:08;;;;;;;96.50;63.17;;;15.10;99.90;;;;;;5072106;28;20654;-82
2023/09/04 02:33:35;;;;;;;92.83;65.23;;;15.10;99.90;;;;;;5088513;28;20432;-82
2023/09/04 02:36:01;;;;;;;88.87;54.83;;;15.00;99.90;;;;;;5037097;28;20439;-81
2023/09/04 02:38:26;;;;;;;93.70;59.40;;;15.00;99.90;;;;;;5033144;28;20822;-82
2023/09/04 02:40:52;;;;;;;88.43;57.40;;;15.00;99.90;;;;;;5022048;28;20449;-82
2023/09/04 02:44:37;;;;;;;89.13;56.73;;;15.00;99.90;;;;;;5155327;27;20505;-81
2023/09/04 02:47:03;;;;;;;92.40;65.30;;;15.00;99.90;;;;;;5146094;27;20432;-82
2023/09/04 02:49:28;;;;;;;96.90;73.73;;;14.90;99.90;;;;;;5152331;27;20214;-81
2023/09/04 02:51:54;;;;;;;94.07;61.00;;;14.90;99.90;;;;;;5133710;28;20303;-81
2023/09/04 02:54:20;;;;;;;94.70;66.07;;;14.90;99.90;;;;;;5122048;28;20197;-81
2023/09/04 02:56:45;;;;;;;87.33;53.03;;;14.90;99.90;;;;;;5091000;28;20219;-82
2023/09/04 02:59:11;;;;;;;87.20;49.50;;;14.90;99.90;;;;;;5111396;28;20253;-81
2023/09/04 03:01:37;;;;;;;87.63;52.53;;;15.00;99.90;;;;;;5090501;28;20209;-82
2023/09/04 03:04:02;;;;;;;89.83;55.80;;;14.90;99.90;;;;;;5056393;28;20213;-82
2023/09/04 03:06:28;;;;;;;90.27;58.23;;;15.00;99.90;;;;;;5051523;28;20195;-81
2023/09/04 03:08:54;;;;;;;92.73;64.10;;;14.90;99.90;;;;;;4994676;28;20430;-81
2023/09/04 03:12:49;;;;;;;93.80;65.97;;;14.80;99.90;;;;;;5155349;27;20491;-82
2023/09/04 03:15:15;;;;;;;94.13;66.90;;;14.80;99.90;;;;;;5150193;27;20492;-82
2023/09/04 03:17:41;;;;;;;88.97;54.07;;;14.80;99.90;;;;;;5154352;27;20411;-82
2023/09/04 03:20:10;;;;;;;91.73;63.73;;;14.70;99.90;;;;;;5145888;27;20194;-82
2023/09/04 03:22:35;;;;;;;90.50;56.63;;;14.70;99.90;;;;;;5089347;28;20180;-82
2023/09/04 03:25:01;;;;;;;88.70;54.20;;;14.70;99.90;;;;;;5090076;28;20424;-82
2023/09/04 03:27:27;;;;;;;89.77;54.63;;;14.70;99.90;;;;;;5070298;28;20324;-82
2023/09/04 03:29:53;;;;;;;89.87;57.60;;;14.60;99.90;;;;;;5064559;28;20669;-80
2023/09/04 03:32:18;;;;;;;87.50;51.33;;;14.60;99.90;;;;;;5065114;28;20548;-82
2023/09/04 03:38:00;;;;;;;90.30;56.93;;;14.60;99.90;;;;;;5155383;27;20510;-82
2023/09/04 03:40:28;;;;;;;92.93;61.03;;;14.50;99.90;;;;;;5120908;28;20449;-81
2023/09/04 03:42:55;;;;;;;90.60;57.87;;;14.50;99.90;;;;;;5099220;28;20210;-81
2023/09/04 03:45:21;;;;;;;92.17;60.77;;;14.50;99.90;;;;;;5129896;28;20488;-81
2023/09/04 03:47:48;;;;;;;91.77;59.87;;;14.50;99.90;;;;;;5124609;28;20426;-81
2023/09/04 03:50:14;;;;;;;94.47;60.10;;;14.40;99.90;;;;;;5051271;28;20455;-81
2023/09/04 03:52:41;;;;;;;93.60;59.57;;;14.30;99.90;;;;;;5107731;28;20899;-81
2023/09/04 03:55:09;;;;;;;91.73;63.63;;;14.30;99.90;;;;;;5093125;28;20190;-81
2023/09/04 03:57:36;;;;;;;91.60;61.00;;;14.20;99.90;;;;;;5080965;28;20461;-81
2023/09/04 04:02:41;;;;;;;95.23;67.63;;;14.20;99.90;;;;;;5155027;27;20511;-82
2023/09/04 04:05:08;;;;;;;94.80;69.03;;;14.10;99.90;;;;;;5150375;27;20415;-82
2023/09/04 04:07:34;;;;;;;91.80;63.57;;;14.20;99.90;;;;;;5154886;27;20526;-81
2023/09/04 04:10:01;;;;;;;92.10;58.90;;;14.20;99.90;;;;;;5126015;28;20477;-82
2023/09/04 04:12:27;;;;;;;90.23;60.07;;;14.20;99.90;;;;;;5120436;28;20419;-82
2023/09/04 04:14:57;;;;;;;93.30;66.70;;;14.20;99.90;;;;;;5109603;28;20484;-82
2023/09/04 04:17:26;;;;;;;90.20;56.83;;;14.20;99.90;;;;;;5129293;28;20203;-82
2023/09/04 04:19:53;;;;;;;92.63;65.37;;;14.10;99.90;;;;;;5080095;28;20461;-82
2023/09/04 04:22:23;;;;;;;93.73;62.63;;;14.10;99.90;;;;;;4979258;28;30315;-82
2023/09/04 04:27:38;;;;;;;94.13;67.83;;;14.10;99.90;;;;;;5155757;27;20498;-82
2023/09/04 04:30:05;;;;;;;90.53;58.27;;;14.00;99.90;;;;;;5127930;28;20462;-82
2023/09/04 04:32:30;;;;;;;94.03;67.80;;;14.00;99.90;;;;;;5133726;27;20423;-82
2023/09/04 04:34:56;;;;;;;92.00;60.73;;;14.00;99.90;;;;;;5132585;28;20472;-81
2023/09/04 04:37:21;;;;;;;90.43;59.23;;;14.00;99.90;;;;;;5112560;28;20188;-82
2023/09/04 04:39:47;;;;;;;91.47;62.60;;;14.00;99.90;;;;;;5080935;28;20191;-82
2023/09/04 04:42:13;;;;;;;90.97;59.50;;;13.90;99.90;;;;;;5078592;28;20191;-82
2023/09/04 04:44:39;;;;;;;90.07;55.57;;;13.90;99.90;;;;;;5070929;28;20200;-82
2023/09/04 04:47:05;;;;;;;92.70;58.07;;;13.90;99.90;;;;;;4980660;28;20549;-82
2023/09/04 04:51:51;;;;;;;91.57;62.90;;;13.90;99.90;;;;;;5152886;27;20296;-79
2023/09/04 04:54:19;;;;;;;90.27;55.40;;;14.00;99.90;;;;;;5147309;27;20446;-76
2023/09/04 04:56:47;;;;;;;87.53;49.97;;;13.90;99.90;;;;;;5131638;27;21005;-79
2023/09/04 04:59:13;;;;;;;87.73;49.00;;;13.90;99.90;;;;;;5151871;27;20782;-79
2023/09/04 05:01:38;;;;;;;88.13;51.40;;;13.90;99.90;;;;;;5107268;28;20422;-79
2023/09/04 05:04:04;;;;;;;86.63;45.67;;;13.90;99.90;;;;;;5107158;28;20231;-76
2023/09/04 05:06:30;;;;;;;86.70;47.70;;;13.90;99.90;;;;;;5125021;28;20239;-76
2023/09/04 05:08:55;;;;;;;89.00;53.13;;;13.90;99.90;;;;;;5122323;28;20422;-76
2023/09/04 05:11:21;;;;;;;86.07;45.63;;;13.90;99.90;;;;;;5119550;28;20205;-76
2023/09/04 05:13:47;;;;;;;85.50;45.07;;;14.00;99.90;;;;;;5060829;28;20229;-78
2023/09/04 05:17:30;;;;;;;86.90;43.77;;;14.10;99.90;;;;;;5153414;27;20494;-79
2023/09/04 05:19:55;;;;;;;86.80;42.43;;;14.10;99.90;;;;;;5142514;27;20451;-79
2023/09/04 05:22:21;;;;;;;85.30;40.00;;;14.10;99.90;;;;;;5131526;28;20186;-79
2023/09/04 05:24:46;;;;;;;88.40;43.70;;;14.10;99.90;;;;;;5129714;28;20534;-76
2023/09/04 05:27:12;;;;;;;83.97;37.73;;;14.10;99.90;;;;;;5110273;28;20184;-76
2023/09/04 05:29:38;;;;;;;84.30;40.87;;;14.20;99.90;;;;;;5054553;28;20205;-76
2023/09/04 05:32:04;;;;;;;84.83;40.63;;;14.20;99.90;;;;;;5076847;28;20187;-76
2023/09/04 05:34:29;;;;;;;86.43;39.47;;;14.20;99.90;;;;;;5037837;28;20543;-76
2023/09/04 05:36:55;;;;;;;85.30;37.97;;;14.30;99.90;;;;;;5046326;28;20462;-76
2023/09/04 05:42:10;;;;;;;82.73;31.53;;;14.30;99.90;;;;;;5152223;27;21036;-78
2023/09/04 05:44:36;;;;;;;82.73;31.93;;;14.40;99.90;;;;;;5147399;27;20427;-78
2023/09/04 05:47:03;;;;;;;82.93;32.27;;;14.40;99.90;;;;;;5151241;27;20178;-80
2023/09/04 05:49:28;;;;;;;84.07;35.50;;;14.60;99.90;;;;;;5148478;27;20174;-79
2023/09/04 05:51:54;;;;;;;81.30;31.00;;;14.70;99.90;;;;;;5121350;28;20423;-80
2023/09/04 05:54:22;;;;;;;80.50;33.83;;;14.80;99.90;;;;;;5113904;28;20225;-80
2023/09/04 05:56:48;;;;;;;82.03;32.77;;;14.80;99.90;;;;;;5015705;28;20185;-79
2023/09/04 05:59:16;;;;;;;78.67;27.30;;;14.90;99.90;;;;;;5013162;28;20424;-78
2023/09/04 06:01:42;;;;;;;81.20;29.33;;;14.90;99.90;;;;;;4879386;29;20520;-79
2023/09/04 06:07:21;;;;;;;78.53;25.33;;;14.90;99.90;;;;;;5151748;27;21056;-79
2023/09/04 06:09:47;;;;;;;80.43;28.40;;;15.00;99.90;;;;;;5141773;27;20440;-79
2023/09/04 06:12:12;;;;;;;79.80;28.33;;;15.10;99.90;;;;;;5130184;28;20711;-79
2023/09/04 06:14:39;;;;;;;80.00;28.07;;;15.10;99.90;;;;;;5129746;28;20181;-79
2023/09/04 06:17:05;;;;;;;80.60;27.40;;;15.10;99.90;;;;;;5113575;28;20254;-79
2023/09/04 06:19:31;;;;;;;78.87;26.77;;;15.20;99.90;;;;;;5098411;28;20479;-79
2023/09/04 06:21:57;;;;;;;79.50;25.27;;;15.30;99.90;;;;;;5106144;28;20410;-78
2023/09/04 06:24:23;;;;;;;84.60;27.90;;;15.40;99.90;;;;;;5055905;28;20190;-79
2023/09/04 06:26:48;;;;;;;78.03;25.67;;;15.40;99.90;;;;;;5024895;28;20469;-79
2023/09/04 06:29:19;;;;;;;77.50;23.50;;;15.40;99.90;;;;;;4990752;28;20414;-78
2023/09/04 06:33:36;;;;;;;76.80;24.03;;;15.50;99.90;;;;;;5152144;27;20506;-79
2023/09/04 06:36:03;;;;;;;77.37;25.13;;;15.60;99.90;;;;;;5128204;27;20419;-79
2023/09/04 06:38:29;;;;;;;80.10;24.50;;;15.60;99.90;;;;;;5132148;27;20427;-78
2023/09/04 06:40:57;;;;;;;80.53;25.17;;;15.70;99.90;;;;;;5135845;27;20434;-79
2023/09/04 06:43:28;;;;;;;76.97;24.20;;;15.70;99.90;;;;;;5120224;28;20171;-78
2023/09/04 06:45:54;;;;;;;77.60;23.50;;;15.90;99.90;;;;;;5125081;28;20417;-79
2023/09/04 06:48:20;;;;;;;80.27;26.57;;;15.80;99.90;;;;;;5116744;28;20429;-80
2023/09/04 06:50:49;;;;;;;78.80;26.20;;;15.80;99.90;;;;;;5080483;28;20201;-79
2023/09/04 06:53:16;;;;;;;80.70;21.97;;;15.90;99.90;;;;;;5081723;28;20470;-79
2023/09/04 06:55:42;;;;;;;77.30;24.43;;;16.00;99.90;;;;;;4987216;28;20795;-79
2023/09/04 07:00:45;;;;;;;77.27;26.63;;;16.00;99.90;;;;;;5139382;27;20535;-79
2023/09/04 07:03:11;;;;;;;78.10;22.07;;;16.10;99.90;;;;;;5147389;27;20431;-78
2023/09/04 07:05:37;;;;;;;76.60;24.90;;;16.20;99.90;;;;;;5152094;27;20175;-78
2023/09/04 07:08:04;;;;;;;87.30;24.93;;;16.30;99.90;;;;;;5150964;27;20660;-79
2023/09/04 07:10:31;;;;;;;75.63;23.13;;;16.30;99.90;;;;;;5111998;28;20232;-79
2023/09/04 07:12:58;;;;;;;77.50;22.70;;;16.30;99.90;;;;;;5119566;28;20420;-79
2023/09/04 07:15:24;;;;;;;78.00;24.07;;;16.40;99.90;;;;;;5124868;28;20434;-79
2023/09/04 07:17:50;;;;;;;76.27;21.70;;;16.50;99.90;;;;;;5124500;28;20842;-76
2023/09/04 07:20:15;;;;;;;77.00;22.40;;;16.60;99.90;;;;;;5081786;28;20302;-78
2023/09/04 07:22:41;;;;;;;75.10;20.07;;;16.70;99.90;;;;;;5114576;28;20647;-80
2023/09/04 07:26:13;;;;;;;75.27;20.87;;;16.60;99.90;;;;;;5152993;27;20503;-79
2023/09/04 07:28:38;;;;;;;77.30;26.50;;;16.80;99.90;;;;;;5147676;27;20449;-79
2023/09/04 07:31:17;;;;;;;78.77;23.50;;;16.80;99.90;;;;;;5136036;27;20442;-79
2023/09/04 07:33:44;;;;;;;75.10;21.87;;;16.90;99.90;;;;;;5110449;28;20218;-77
2023/09/04 07:36:10;;;;;;;75.63;22.97;;;16.90;99.90;;;;;;5118603;28;20500;-77
2023/09/04 07:38:35;;;;;;;78.67;23.63;;;16.90;99.90;;;;;;5101208;28;20856;-77
2023/09/04 07:41:03;;;;;;;75.30;23.10;;;17.00;99.90;;;;;;5083944;28;20441;-78
2023/09/04 07:43:33;;;;;;;78.10;28.73;;;17.10;99.90;;;;;;5013481;28;20225;-78
2023/09/04 07:46:00;;;;;;;77.27;28.90;;;17.10;99.90;;;;;;4886063;29;20461;-78
2023/09/04 07:51:23;;;;;;;84.20;28.67;;;17.40;99.90;;;;;;5133806;27;20532;-80
2023/09/04 07:53:49;;;;;;;77.07;24.77;;;17.40;99.90;;;;;;5123425;28;20420;-80
2023/09/04 07:56:16;;;;;;;75.30;22.60;;;17.40;99.90;;;;;;5139732;27;20218;-80
2023/09/04 07:58:41;;;;;;;75.30;24.13;;;17.50;99.90;;;;;;5145133;27;20413;-78
2023/09/04 08:01:13;;;;;;;76.33;21.70;;;17.60;99.90;;;;;;5135336;27;20441;-77
2023/09/04 08:03:42;;;;;;;74.97;19.30;;;17.60;99.90;;;;;;5019079;28;20510;-78
2023/09/04 08:06:08;;;;;;;75.10;18.13;;;17.70;99.90;;;;;;4964031;28;20441;-77
2023/09/04 08:08:34;;;;;;;73.37;17.07;;;17.80;99.90;;;;;;4964385;28;20431;-77
2023/09/04 08:10:59;;;;;;;77.03;17.57;;;17.80;99.90;;;;;;4980385;28;20219;-78
2023/09/04 08:13:25;;;;;;;74.17;16.50;;;17.90;99.90;;;;;;4984660;28;20187;-77
2023/09/04 08:18:23;;;;;;;78.60;16.07;;;18.00;99.90;;;;;;5152137;27;20304;-78
2023/09/04 08:20:49;;;;;;;75.23;20.43;;;18.00;99.90;;;;;;5133193;27;20946;-78
2023/09/04 08:23:15;;;;;;;72.63;13.30;;;18.10;99.90;;;;;;5111245;28;20182;-77
2023/09/04 08:25:41;;;;;;;75.60;16.17;;;18.20;99.90;;;;;;5109622;28;20527;-77
2023/09/04 08:28:06;;;;;;;72.60;12.40;;;18.30;99.90;;;;;;5121019;28;20771;-78
2023/09/04 08:30:32;;;;;;;71.93;13.50;;;18.40;96.20;;;;;;5122709;28;20209;-77
2023/09/04 08:32:58;;;;;;;73.73;17.00;;;18.40;97.20;;;;;;5125103;28;20178;-77
2023/09/04 08:35:28;;;;;;;73.20;13.77;;;18.50;94.40;;;;;;5110214;28;20174;-77
2023/09/04 08:37:54;;;;;;;72.60;14.40;;;18.60;91.60;;;;;;5033342;28;20261;-78
2023/09/04 08:42:50;;;;;;;80.67;22.53;;;18.70;87.40;;;;;;5152597;27;20665;-80
2023/09/04 08:45:17;;;;;;;76.40;21.40;;;18.90;78.10;;;;;;5147920;27;20434;-80
2023/09/04 08:47:43;;;;;;;82.33;37.03;;;19.00;74.60;;;;;;5151782;27;20419;-79
2023/09/04 08:50:11;;;;;;;84.40;44.07;;;19.00;78.00;;;;;;5142432;27;20449;-79
2023/09/04 08:52:37;;;;;;;77.70;29.13;;;19.00;57.50;;;;;;5112812;28;20421;-79
2023/09/04 08:55:05;;;;;;;85.07;46.37;;;19.10;70.70;;;;;;5092354;28;20506;-80
2023/09/04 08:57:32;;;;;;;87.50;55.00;;;19.20;55.90;;;;;;5085263;28;20424;-80
2023/09/04 08:59:59;;;;;;;84.10;45.87;;;19.30;51.00;;;;;;5077368;28;20454;-77
2023/09/04 09:02:25;;;;;;;85.50;50.80;;;19.40;58.70;;;;;;5039711;28;20454;-77
2023/09/04 09:04:52;;;;;;;88.47;58.00;;;19.50;50.10;;;;;;5026905;28;20943;-78
2023/09/04 09:09:16;;;;;;;79.90;35.73;;;19.60;45.10;;;;;;5152276;27;20489;-80
2023/09/04 09:11:42;;;;;;;84.37;40.40;;;19.60;20.60;;;;;;5147357;27;20421;-80
2023/09/04 09:14:09;;;;;;;80.37;36.83;;;19.70;37.60;;;;;;5132010;27;20435;-78
2023/09/04 09:16:34;;;;;;;83.57;40.67;;;19.80;21.00;;;;;;5150492;27;20408;-77
2023/09/04 09:19:02;;;;;;;82.70;41.90;;;19.80;24.80;;;;;;5142000;27;20750;-78
2023/09/04 09:21:28;;;;;;;83.00;34.33;;;20.00;25.80;;;;;;5141688;27;20280;-78
2023/09/04 09:24:09;;;;;;;77.17;25.20;;;20.10;17.20;;;;;;5146756;27;22059;-78
2023/09/04 09:26:36;;;;;;;81.17;35.27;;;20.10;14.30;;;;;;5017846;28;20457;-78
2023/09/04 09:29:03;;;;;;;77.17;28.77;;;20.20;10.10;;;;;;5053940;28;20512;-79
2023/09/04 09:31:30;;;;;;;75.73;21.90;;;20.30;4.20;;;;;;5026396;28;20485;-80
2023/09/04 09:35:11;;;;;;;75.47;24.67;;;20.30;1.00;;;;;;5153703;27;20502;-82
2023/09/04 09:37:37;;;;;;;77.07;26.90;;;20.40;3.20;;;;;;5148853;27;20425;-82
2023/09/04 09:40:08;;;;;;;75.27;22.97;;;20.60;1.10;;;;;;5145506;27;20202;-81
2023/09/04 09:42:35;;;;;;;74.13;14.93;;;20.70;1.00;;;;;;5098359;28;20187;-80
2023/09/04 09:45:00;;;;;;;77.80;20.20;;;20.70;1.00;;;;;;5089397;28;20431;-81
2023/09/04 09:47:26;;;;;;;74.77;20.43;;;20.80;1.00;;;;;;5104146;28;20429;-81
2023/09/04 09:49:55;;;;;;;78.40;12.37;;;21.00;3.90;;;;;;5106624;28;20203;-81
2023/09/04 09:52:20;;;;;;;69.90;8.40;;;21.00;1.00;;;;;;5096360;28;20667;-81
2023/09/04 09:54:47;;;;;;;72.37;11.97;;;21.10;1.00;;;;;;5008907;28;20496;-81
2023/09/04 09:59:53;;;;;;;76.47;8.60;;;21.40;1.00;;;;;;5149308;27;20522;-79
2023/09/04 10:02:22;;;;;;;71.40;10.63;;;21.40;1.00;;;;;;5150365;27;20422;-79
2023/09/04 10:04:49;;;;;;;69.67;7.80;;;21.60;1.00;;;;;;5155121;27;20187;-79
2023/09/04 10:07:21;;;;;;;70.77;7.90;;;21.80;1.00;;;;;;5133895;27;20442;-79
2023/09/04 10:09:59;;;;;;;75.80;8.87;;;22.00;1.00;;;;;;5097818;28;20496;-79
2023/09/04 10:12:52;;;;;;;70.20;8.13;;;22.00;1.00;;;;;;5019861;28;20428;-79
2023/09/04 10:15:28;;;;;;;71.60;8.63;;;22.20;1.00;;;;;;5001744;28;20554;-79
2023/09/04 10:18:19;;;;;;;69.47;6.10;;;22.40;1.00;;;;;;4964906;28;20470;-79
2023/09/04 10:20:47;;;;;;;70.30;7.00;;;22.50;1.00;;;;;;4865699;29;20460;-79
2023/09/04 10:25:07;;;;;;;70.67;6.50;;;22.50;1.00;;;;;;5154385;27;20843;-81
2023/09/04 10:27:44;;;;;;;71.40;7.00;;;22.60;1.00;;;;;;5115763;27;20501;-82
2023/09/04 10:30:14;;;;;;;71.97;6.60;;;22.60;1.00;;;;;;5122041;28;20464;-81
2023/09/04 10:32:40;;;;;;;71.20;6.73;;;22.80;1.00;;;;;;5119369;28;20418;-81
2023/09/04 10:35:07;;;;;;;71.37;8.37;;;23.00;1.00;;;;;;5105776;28;20509;-82
2023/09/04 10:37:34;;;;;;;73.40;7.47;;;23.10;1.00;;;;;;5120775;28;20178;-81
2023/09/04 10:40:01;;;;;;;70.30;7.70;;;23.10;1.00;;;;;;5088640;28;20838;-82
2023/09/04 10:42:28;;;;;;;71.17;6.33;;;23.10;1.00;;;;;;5101831;28;20436;-79
2023/09/04 10:44:56;;;;;;;71.80;6.60;;;23.40;1.00;;;;;;5080469;28;20441;-79
2023/09/04 10:50:01;;;;;;;70.70;7.87;;;23.50;1.00;;;;;;5207883;22;20915;-83
2023/09/04 10:52:42;;;;;;;72.83;7.63;;;23.60;1.00;;;;;;5150778;27;20411;-83
2023/09/04 10:55:13;;;;;;;72.27;8.37;;;23.60;1.00;;;;;;5098903;28;20537;-82
2023/09/04 10:57:58;;;;;;;70.47;8.50;;;23.60;1.00;;;;;;5116887;27;20410;-83
2023/09/04 11:00:40;;;;;;;74.27;9.03;;;23.60;1.00;;;;;;5091415;28;20458;-82
2023/09/04 11:03:21;;;;;;;74.07;9.03;;;23.70;1.00;;;;;;5061738;28;20419;-82
2023/09/04 11:06:12;;;;;;;71.60;8.07;;;23.80;1.00;;;;;;4964990;28;20412;-82
2023/09/04 11:08:50;;;;;;;69.30;5.50;;;24.00;1.00;;;;;;4837906;29;20517;-83
2023/09/04 11:13:12;;;;;;;69.90;5.40;;;23.90;1.00;;;;;;5158277;27;20522;-83
2023/09/04 11:15:38;;;;;;;75.53;7.67;;;24.10;1.00;;;;;;5130951;28;20791;-83
2023/09/04 11:18:14;;;;;;;70.07;5.87;;;24.30;1.00;;;;;;5155537;27;20414;-82
2023/09/04 11:20:53;;;;;;;71.00;6.40;;;24.40;1.00;;;;;;5129016;28;21017;-82
2023/09/04 11:23:19;;;;;;;71.80;5.93;;;24.80;1.00;;;;;;5116407;28;20784;-84
2023/09/04 11:25:46;;;;;;;68.80;4.67;;;24.90;1.00;;;;;;5114912;28;20423;-84
2023/09/04 11:28:12;;;;;;;68.77;4.87;;;24.80;1.00;;;;;;5025805;28;20533;-84
2023/09/04 11:30:38;;;;;;;70.20;5.27;;;24.70;1.00;;;;;;4979281;28;20445;-85
2023/09/04 11:33:04;;;;;;;71.33;4.80;;;24.90;1.00;;;;;;4901001;29;20509;-84
2023/09/04 11:37:54;;;;;;;70.90;4.40;;;25.00;1.00;;;;;;5161139;27;20306;-83
2023/09/04 11:40:20;;;;;;;72.47;4.53;;;25.30;1.00;;;;;;5145137;27;20448;-84
2023/09/04 11:42:46;;;;;;;70.20;5.00;;;25.30;1.00;;;;;;5137513;28;20238;-83
2023/09/04 11:45:12;;;;;;;71.40;6.17;;;25.40;1.00;;;;;;5137150;28;20563;-83
2023/09/04 11:47:37;;;;;;;70.60;5.90;;;25.60;1.00;;;;;;5116997;28;20483;-83
2023/09/04 11:50:03;;;;;;;69.80;5.27;;;25.70;1.00;;;;;;5048321;28;20243;-83
2023/09/04 11:52:29;;;;;;;71.07;4.60;;;25.60;1.00;;;;;;5052758;28;20188;-83
2023/09/04 11:54:55;;;;;;;70.40;4.70;;;26.00;1.00;;;;;;5016835;28;20758;-84
2023/09/04 11:57:22;;;;;;;72.40;5.00;;;26.00;1.00;;;;;;4976375;28;20212;-83
2023/09/04 12:02:07;;;;;;;69.67;5.60;;;25.80;1.00;;;;;;5160412;27;20506;-84
2023/09/04 12:04:34;;;;;;;70.97;6.00;;;26.20;1.00;;;;;;5154045;27;20434;-84
2023/09/04 12:07:05;;;;;;;70.77;5.67;;;26.30;1.00;;;;;;5160014;27;20448;-83
2023/09/04 12:09:33;;;;;;;70.73;5.97;;;26.20;1.00;;;;;;5155027;27;20413;-83
2023/09/04 12:12:01;;;;;;;71.00;5.77;;;26.20;1.00;;;;;;5094352;28;20469;-83
2023/09/04 12:14:27;;;;;;;69.90;5.00;;;26.40;1.00;;;;;;5086833;28;20423;-84
2023/09/04 12:16:53;;;;;;;70.00;5.57;;;26.50;1.00;;;;;;5099387;28;20417;-84
2023/09/04 12:19:24;;;;;;;70.00;5.57;;;26.60;1.00;;;;;;5066793;28;20433;-84
2023/09/04 12:21:50;;;;;;;70.57;6.20;;;26.70;1.00;;;;;;5063585;28;20575;-84
2023/09/04 12:26:49;;;;;;;70.90;6.90;;;26.80;1.00;;;;;;5160704;27;20504;-84
2023/09/04 12:29:17;;;;;;;70.63;7.60;;;27.00;1.00;;;;;;5140575;27;20431;-83
2023/09/04 12:31:43;;;;;;;70.83;7.60;;;27.40;1.00;;;;;;5120091;28;20420;-83
2023/09/04 12:34:09;;;;;;;69.50;5.03;;;27.40;1.00;;;;;;5136935;28;20488;-84
2023/09/04 12:36:35;;;;;;;71.73;9.37;;;27.20;1.00;;;;;;5121296;28;20186;-84
2023/09/04 12:39:01;;;;;;;70.40;6.90;;;27.10;1.00;;;;;;5094254;28;20175;-84
2023/09/04 12:41:27;;;;;;;70.80;3.37;;;27.10;1.00;;;;;;5115975;28;20443;-83
2023/09/04 12:43:53;;;;;;;71.90;4.63;;;27.20;1.00;;;;;;5127456;28;20170;-84
2023/09/04 12:46:20;;;;;;;71.70;3.87;;;27.00;1.00;;;;;;5021555;28;20552;-85
2023/09/04 12:50:44;;;;;;;70.97;3.83;;;27.10;1.00;;;;;;5143822;27;20515;-86
2023/09/04 12:53:10;;;;;;;71.00;2.93;;;27.00;1.00;;;;;;5147339;27;20935;-86
2023/09/04 12:55:36;;;;;;;70.03;3.00;;;26.90;1.00;;;;;;5132647;27;20423;-87
2023/09/04 12:58:07;;;;;;;72.17;3.37;;;26.80;1.00;;;;;;5151038;27;20185;-87
2023/09/04 13:00:34;;;;;;;68.77;3.23;;;26.80;1.00;;;;;;5067663;28;20206;-86
2023/09/04 13:03:00;;;;;;;68.80;3.20;;;26.60;1.00;;;;;;5027216;28;20421;-86
2023/09/04 13:05:25;;;;;;;69.60;2.80;;;26.60;1.00;;;;;;4976205;28;20525;-87
2023/09/04 13:07:51;;;;;;;69.30;3.10;;;26.60;1.00;;;;;;4897947;28;20194;-86
2023/09/04 13:12:55;;;;;;;70.37;3.57;;;26.60;1.00;;;;;;5157718;27;20520;-86
2023/09/04 13:15:21;;;;;;;70.03;3.20;;;26.70;1.00;;;;;;5150414;27;20415;-86
2023/09/04 13:17:46;;;;;;;68.80;3.00;;;26.70;1.00;;;;;;5155665;27;20185;-86
2023/09/04 13:20:13;;;;;;;69.50;2.90;;;26.70;1.00;;;;;;5123423;28;20311;-86
2023/09/04 13:22:45;;;;;;;68.73;3.00;;;26.70;1.00;;;;;;5095249;28;20236;-86
2023/09/04 13:25:10;;;;;;;69.27;3.60;;;26.80;1.00;;;;;;5079355;28;20553;-87
2023/09/04 13:27:38;;;;;;;71.60;3.00;;;26.90;1.00;;;;;;5037137;28;20537;-86
2023/09/04 13:30:09;;;;;;;69.67;3.93;;;27.00;1.00;;;;;;4974253;28;20560;-86
2023/09/04 13:32:36;;;;;;;70.17;3.27;;;26.80;1.00;;;;;;4855207;28;20824;-87
2023/09/04 13:36:52;;;;;;;69.63;3.13;;;26.90;1.00;;;;;;5158551;27;20498;-86
2023/09/04 13:39:18;;;;;;;68.87;2.77;;;27.00;1.00;;;;;;5153013;27;20461;-85
2023/09/04 13:41:43;;;;;;;69.07;3.37;;;26.80;1.00;;;;;;5138365;27;20415;-86
2023/09/04 13:44:09;;;;;;;69.40;2.90;;;26.80;1.00;;;;;;5113281;28;20191;-85
2023/09/04 13:46:38;;;;;;;70.17;3.70;;;26.90;1.00;;;;;;5063269;28;20184;-85
2023/09/04 13:49:04;;;;;;;69.40;3.33;;;27.00;1.00;;;;;;5091992;28;20179;-85